sensor_id;sensor_type;location;lat;lon;timestamp;temperature;humidity
8420;DHT22;4247;48.550;8.822;2022-09-24T00:00:18;12.10;99.90
8420;DHT22;4247;48.550;8.822;2022-09-24T00:02:45;12.00;99.90
8420;DHT22;4247;48.550;8.822;2022-09-24T00:05:13;12.00;99.90
8420;DHT22;4247;48.550;8.822;2022-09-24T00:07:40;12.00;99.90
8420;DHT22;4247;48.550;8.822;2022-09-24T00:10:08;12.00;99.90
8420;DHT22;4247;48.550;8.822;2022-09-24T00:12:34;12.00;99.90
8420;DHT22;4247;48.550;8.822;2022-09-24T00:15:01;12.00;99.90
8420;DHT22;4247;48.550;8.822;2022-09-24T00:17:29;12.00;99.90
8420;DHT22;4247;48.550;8.822;2022-09-24T00:19:56;11.90;99.90
8420;DHT22;4247;48.550;8.822;2022-09-24T00:22:24;11.90;99.90
8420;DHT22;4247;48.550;8.822;2022-09-24T00:25:09;11.90;99.90
8420;DHT22;4247;48.550;8.822;2022-09-24T00:27:53;11.90;99.90
8420;DHT22;4247;48.550;8.822;2022-09-24T00:30:20;11.80;99.90
8420;DHT22;4247;48.550;8.822;2022-09-24T00:32:47;11.80;99.90
8420;DHT22;4247;48.550;8.822;2022-09-24T00:35:14;11.70;99.90
8420;DHT22;4247;48.550;8.822;2022-09-24T00:37:42;11.70;99.90
8420;DHT22;4247;48.550;8.822;2022-09-24T00:40:09;11.60;99.90
8420;DHT22;4247;48.550;8.822;2022-09-24T00:42:36;11.60;99.90
8420;DHT22;4247;48.550;8.822;2022-09-24T00:45:04;11.60;99.90
8420;DHT22;4247;48.550;8.822;2022-09-24T00:47:34;11.60;99.90
8420;DHT22;4247;48.550;8.822;2022-09-24T00:50:05;11.60;99.90
8420;DHT22;4247;48.550;8.822;2022-09-24T00:52:34;11.50;99.90
8420;DHT22;4247;48.550;8.822;2022-09-24T00:55:07;11.40;99.90
8420;DHT22;4247;48.550;8.822;2022-09-24T00:57:35;11.40;99.90
8420;DHT22;4247;48.550;8.822;2022-09-24T01:00:04;11.40;99.90
8420;DHT22;4247;48.550;8.822;2022-09-24T01:02:33;11.40;99.90
8420;DHT22;4247;48.550;8.822;2022-09-24T01:05:02;11.30;99.90
8420;DHT22;4247;48.550;8.822;2022-09-24T01:07:29;11.30;99.90
8420;DHT22;4247;48.550;8.822;2022-09-24T01:09:56;11.30;99.90
8420;DHT22;4247;48.550;8.822;2022-09-24T01:12:31;11.30;99.90
8420;DHT22;4247;48.550;8.822;2022-09-24T01:15:07;11.20;99.90
8420;DHT22;4247;48.550;8.822;2022-09-24T01:17:45;11.20;99.90
8420;DHT22;4247;48.550;8.822;2022-09-24T01:20:42;11.20;99.90
8420;DHT22;4247;48.550;8.822;2022-09-24T01:23:43;11.10;99.90
8420;DHT22;4247;48.550;8.822;2022-09-24T01:26:31;11.10;99.90
8420;DHT22;4247;48.550;8.822;2022-09-24T01:29:30;11.10;99.90
8420;DHT22;4247;48.550;8.822;2022-09-24T01:32:03;11.00;99.90
8420;DHT22;4247;48.550;8.822;2022-09-24T01:34:38;11.00;99.90
8420;DHT22;4247;48.550;8.822;2022-09-24T01:37:06;11.00;99.90
8420;DHT22;4247;48.550;8.822;2022-09-24T01:39:35;11.00;99.90
8420;DHT22;4247;48.550;8.822;2022-09-24T01:42:09;11.00;99.90
8420;DHT22;4247;48.550;8.822;2022-09-24T01:44:38;10.90;99.90
8420;DHT22;4247;48.550;8.822;2022-09-24T01:47:09;10.90;99.90
8420;DHT22;4247;48.550;8.822;2022-09-24T01:49:40;10.90;99.90
8420;DHT22;4247;48.550;8.822;2022-09-24T01:52:09;10.80;99.90
8420;DHT22;4247;48.550;8.822;2022-09-24T01:54:41;10.90;99.90
8420;DHT22;4247;48.550;8.822;2022-09-24T01:57:17;10.90;99.90
8420;DHT22;4247;48.550;8.822;2022-09-24T01:59:53;10.90;99.90
8420;DHT22;4247;48.550;8.822;2022-09-24T02:02:29;10.90;99.90
8420;DHT22;4247;48.550;8.822;2022-09-24T02:05:04;10.80;99.90
8420;DHT22;4247;48.550;8.822;2022-09-24T02:07:36;10.80;99.90
8420;DHT22;4247;48.550;8.822;2022-09-24T02:10:05;10.80;99.90
8420;DHT22;4247;48.550;8.822;2022-09-24T02:12:39;10.80;99.90
8420;DHT22;4247;48.550;8.822;2022-09-24T02:15:10;10.80;99.90
8420;DHT22;4247;48.550;8.822;2022-09-24T02:17:40;10.80;99.90
8420;DHT22;4247;48.550;8.822;2022-09-24T02:20:12;10.90;99.90
8420;DHT22;4247;48.550;8.822;2022-09-24T02:22:44;10.90;99.90
8420;DHT22;4247;48.550;8.822;2022-09-24T02:25:14;10.90;99.90
8420;DHT22;4247;48.550;8.822;2022-09-24T02:27:42;10.90;99.90
8420;DHT22;4247;48.550;8.822;2022-09-24T02:30:12;10.90;99.90
8420;DHT22;4247;48.550;8.822;2022-09-24T02:32:40;10.90;99.90
8420;DHT22;4247;48.550;8.822;2022-09-24T02:35:10;10.90;99.90
8420;DHT22;4247;48.550;8.822;2022-09-24T02:37:38;10.90;99.90
8420;DHT22;4247;48.550;8.822;2022-09-24T02:40:08;10.90;99.90
8420;DHT22;4247;48.550;8.822;2022-09-24T02:42:36;10.90;99.90
8420;DHT22;4247;48.550;8.822;2022-09-24T02:45:07;11.00;99.90
8420;DHT22;4247;48.550;8.822;2022-09-24T02:47:35;11.00;99.90
8420;DHT22;4247;48.550;8.822;2022-09-24T02:50:03;10.90;99.90
8420;DHT22;4247;48.550;8.822;2022-09-24T02:52:31;11.00;99.90
8420;DHT22;4247;48.550;8.822;2022-09-24T02:54:58;11.00;99.90
8420;DHT22;4247;48.550;8.822;2022-09-24T02:57:25;11.00;99.90
8420;DHT22;4247;48.550;8.822;2022-09-24T02:59:52;11.00;99.90
8420;DHT22;4247;48.550;8.822;2022-09-24T03:02:19;11.00;99.90
8420;DHT22;4247;48.550;8.822;2022-09-24T03:04:47;11.00;99.90
8420;DHT22;4247;48.550;8.822;2022-09-24T03:07:14;11.00;99.90
8420;DHT22;4247;48.550;8.822;2022-09-24T03:09:41;11.10;99.90
8420;DHT22;4247;48.550;8.822;2022-09-24T03:12:08;11.10;99.90
8420;DHT22;4247;48.550;8.822;2022-09-24T03:14:35;11.10;99.90
8420;DHT22;4247;48.550;8.822;2022-09-24T03:17:02;11.10;99.90
8420;DHT22;4247;48.550;8.822;2022-09-24T03:19:29;11.10;99.90
8420;DHT22;4247;48.550;8.822;2022-09-24T03:21:58;11.20;99.90
8420;DHT22;4247;48.550;8.822;2022-09-24T03:24:25;11.20;99.90
8420;DHT22;4247;48.550;8.822;2022-09-24T03:26:51;11.30;99.90
8420;DHT22;4247;48.550;8.822;2022-09-24T03:29:19;11.20;99.90
8420;DHT22;4247;48.550;8.822;2022-09-24T03:32:06;11.30;99.90
8420;DHT22;4247;48.550;8.822;2022-09-24T03:34:32;11.30;99.90
8420;DHT22;4247;48.550;8.822;2022-09-24T03:37:00;11.30;99.90
8420;DHT22;4247;48.550;8.822;2022-09-24T03:39:27;11.30;99.90
8420;DHT22;4247;48.550;8.822;2022-09-24T03:41:54;11.30;99.90
8420;DHT22;4247;48.550;8.822;2022-09-24T03:44:21;11.30;99.90
8420;DHT22;4247;48.550;8.822;2022-09-24T03:46:48;11.30;99.90
8420;DHT22;4247;48.550;8.822;2022-09-24T03:49:15;11.40;99.90
8420;DHT22;4247;48.550;8.822;2022-09-24T03:51:42;11.40;99.90
8420;DHT22;4247;48.550;8.822;2022-09-24T03:54:11;11.40;99.90
8420;DHT22;4247;48.550;8.822;2022-09-24T03:56:38;11.40;99.90
8420;DHT22;4247;48.550;8.822;2022-09-24T03:59:05;11.40;99.90
8420;DHT22;4247;48.550;8.822;2022-09-24T04:01:32;11.40;99.90
8420;DHT22;4247;48.550;8.822;2022-09-24T04:04:00;11.40;99.90
8420;DHT22;4247;48.550;8.822;2022-09-24T04:06:28;11.40;99.90
8420;DHT22;4247;48.550;8.822;2022-09-24T04:08:55;11.40;99.90
8420;DHT22;4247;48.550;8.822;2022-09-24T04:11:27;11.40;99.90
8420;DHT22;4247;48.550;8.822;2022-09-24T04:13:54;11.40;99.90
8420;DHT22;4247;48.550;8.822;2022-09-24T04:16:23;11.40;99.90
8420;DHT22;4247;48.550;8.822;2022-09-24T04:18:50;11.40;99.90
8420;DHT22;4247;48.550;8.822;2022-09-24T04:21:16;11.40;99.90
8420;DHT22;4247;48.550;8.822;2022-09-24T04:23:45;11.40;99.90
8420;DHT22;4247;48.550;8.822;2022-09-24T04:26:12;11.40;99.90
8420;DHT22;4247;48.550;8.822;2022-09-24T04:28:41;11.40;99.90
8420;DHT22;4247;48.550;8.822;2022-09-24T04:31:07;11.40;99.90
8420;DHT22;4247;48.550;8.822;2022-09-24T04:33:35;11.40;99.90
8420;DHT22;4247;48.550;8.822;2022-09-24T04:36:01;11.40;99.90
8420;DHT22;4247;48.550;8.822;2022-09-24T04:38:28;11.50;99.90
8420;DHT22;4247;48.550;8.822;2022-09-24T04:41:03;11.50;99.90
8420;DHT22;4247;48.550;8.822;2022-09-24T04:43:30;11.50;99.90
8420;DHT22;4247;48.550;8.822;2022-09-24T04:46:02;11.50;99.90
8420;DHT22;4247;48.550;8.822;2022-09-24T04:48:30;11.50;99.90
8420;DHT22;4247;48.550;8.822;2022-09-24T04:50:57;11.50;99.90
8420;DHT22;4247;48.550;8.822;2022-09-24T04:53:24;11.50;99.90
8420;DHT22;4247;48.550;8.822;2022-09-24T04:55:51;11.50;99.90
8420;DHT22;4247;48.550;8.822;2022-09-24T04:58:18;11.40;99.90
8420;DHT22;4247;48.550;8.822;2022-09-24T05:00:45;11.50;99.90
8420;DHT22;4247;48.550;8.822;2022-09-24T05:03:13;11.40;99.90
8420;DHT22;4247;48.550;8.822;2022-09-24T05:05:41;11.40;99.90
8420;DHT22;4247;48.550;8.822;2022-09-24T05:08:08;11.40;99.90
8420;DHT22;4247;48.550;8.822;2022-09-24T05:10:35;11.40;99.90
8420;DHT22;4247;48.550;8.822;2022-09-24T05:13:01;11.40;99.90
8420;DHT22;4247;48.550;8.822;2022-09-24T05:15:28;11.50;99.90
8420;DHT22;4247;48.550;8.822;2022-09-24T05:17:55;11.50;99.90
8420;DHT22;4247;48.550;8.822;2022-09-24T05:20:24;11.40;99.90
8420;DHT22;4247;48.550;8.822;2022-09-24T05:22:51;11.40;99.90
8420;DHT22;4247;48.550;8.822;2022-09-24T05:25:19;11.40;99.90
8420;DHT22;4247;48.550;8.822;2022-09-24T05:27:47;11.50;99.90
8420;DHT22;4247;48.550;8.822;2022-09-24T05:30:13;11.50;99.90
8420;DHT22;4247;48.550;8.822;2022-09-24T05:32:41;11.50;99.90
8420;DHT22;4247;48.550;8.822;2022-09-24T05:35:08;11.40;99.90
8420;DHT22;4247;48.550;8.822;2022-09-24T05:37:37;11.50;99.90
8420;DHT22;4247;48.550;8.822;2022-09-24T05:40:05;11.40;99.90
8420;DHT22;4247;48.550;8.822;2022-09-24T05:42:46;11.40;99.90
8420;DHT22;4247;48.550;8.822;2022-09-24T05:45:13;11.40;99.90
8420;DHT22;4247;48.550;8.822;2022-09-24T05:47:42;11.50;99.90
8420;DHT22;4247;48.550;8.822;2022-09-24T05:50:09;11.50;99.90
8420;DHT22;4247;48.550;8.822;2022-09-24T05:52:38;11.50;99.90
8420;DHT22;4247;48.550;8.822;2022-09-24T05:55:06;11.50;99.90
8420;DHT22;4247;48.550;8.822;2022-09-24T05:57:33;11.50;99.90
8420;DHT22;4247;48.550;8.822;2022-09-24T06:00:01;11.50;99.90
8420;DHT22;4247;48.550;8.822;2022-09-24T06:02:28;11.50;99.90
8420;DHT22;4247;48.550;8.822;2022-09-24T06:04:55;11.60;99.90
8420;DHT22;4247;48.550;8.822;2022-09-24T06:07:22;11.60;99.90
8420;DHT22;4247;48.550;8.822;2022-09-24T06:09:50;11.50;99.90
8420;DHT22;4247;48.550;8.822;2022-09-24T06:12:17;11.60;99.90
8420;DHT22;4247;48.550;8.822;2022-09-24T06:14:44;11.70;99.90
8420;DHT22;4247;48.550;8.822;2022-09-24T06:17:11;11.70;99.90
8420;DHT22;4247;48.550;8.822;2022-09-24T06:19:37;11.70;99.90
8420;DHT22;4247;48.550;8.822;2022-09-24T06:22:05;11.80;99.90
8420;DHT22;4247;48.550;8.822;2022-09-24T06:24:32;11.80;99.90
8420;DHT22;4247;48.550;8.822;2022-09-24T06:27:02;11.90;99.90
8420;DHT22;4247;48.550;8.822;2022-09-24T06:29:29;12.00;99.90
8420;DHT22;4247;48.550;8.822;2022-09-24T06:31:57;11.90;99.90
8420;DHT22;4247;48.550;8.822;2022-09-24T06:34:26;12.00;99.90
8420;DHT22;4247;48.550;8.822;2022-09-24T06:36:53;12.00;99.90
8420;DHT22;4247;48.550;8.822;2022-09-24T06:39:22;12.10;99.90
8420;DHT22;4247;48.550;8.822;2022-09-24T06:41:49;12.00;99.90
8420;DHT22;4247;48.550;8.822;2022-09-24T06:44:19;12.10;99.90
8420;DHT22;4247;48.550;8.822;2022-09-24T06:46:46;12.10;99.90
8420;DHT22;4247;48.550;8.822;2022-09-24T06:49:12;12.20;99.90
8420;DHT22;4247;48.550;8.822;2022-09-24T06:51:39;12.20;99.90
8420;DHT22;4247;48.550;8.822;2022-09-24T06:54:07;12.30;99.90
8420;DHT22;4247;48.550;8.822;2022-09-24T06:56:33;12.30;99.90
8420;DHT22;4247;48.550;8.822;2022-09-24T06:59:00;12.30;99.90
8420;DHT22;4247;48.550;8.822;2022-09-24T07:01:29;12.30;99.90
8420;DHT22;4247;48.550;8.822;2022-09-24T07:03:55;12.30;99.90
8420;DHT22;4247;48.550;8.822;2022-09-24T07:06:22;12.40;99.90
8420;DHT22;4247;48.550;8.822;2022-09-24T07:08:50;12.40;99.90
8420;DHT22;4247;48.550;8.822;2022-09-24T07:11:17;12.50;99.90
8420;DHT22;4247;48.550;8.822;2022-09-24T07:13:44;12.50;99.90
8420;DHT22;4247;48.550;8.822;2022-09-24T07:16:11;12.60;99.90
8420;DHT22;4247;48.550;8.822;2022-09-24T07:18:39;12.60;99.90
8420;DHT22;4247;48.550;8.822;2022-09-24T07:21:06;12.60;99.90
8420;DHT22;4247;48.550;8.822;2022-09-24T07:23:33;12.60;99.90
8420;DHT22;4247;48.550;8.822;2022-09-24T07:26:00;12.70;99.90
8420;DHT22;4247;48.550;8.822;2022-09-24T07:28:27;12.70;99.90
8420;DHT22;4247;48.550;8.822;2022-09-24T07:30:57;12.80;99.90
8420;DHT22;4247;48.550;8.822;2022-09-24T07:33:24;12.80;99.90
8420;DHT22;4247;48.550;8.822;2022-09-24T07:35:52;12.90;99.90
8420;DHT22;4247;48.550;8.822;2022-09-24T07:38:19;12.90;99.90
8420;DHT22;4247;48.550;8.822;2022-09-24T07:40:46;13.00;99.90
8420;DHT22;4247;48.550;8.822;2022-09-24T07:43:13;13.10;99.90
8420;DHT22;4247;48.550;8.822;2022-09-24T07:45:41;13.10;99.90
8420;DHT22;4247;48.550;8.822;2022-09-24T07:48:09;13.20;99.90
8420;DHT22;4247;48.550;8.822;2022-09-24T07:50:38;13.30;99.90
8420;DHT22;4247;48.550;8.822;2022-09-24T07:53:09;13.40;99.90
8420;DHT22;4247;48.550;8.822;2022-09-24T07:55:36;13.50;99.90
8420;DHT22;4247;48.550;8.822;2022-09-24T07:58:05;13.50;99.90
8420;DHT22;4247;48.550;8.822;2022-09-24T08:00:33;13.60;99.90
8420;DHT22;4247;48.550;8.822;2022-09-24T08:03:01;13.70;99.90
8420;DHT22;4247;48.550;8.822;2022-09-24T08:05:28;13.70;99.90
8420;DHT22;4247;48.550;8.822;2022-09-24T08:07:56;13.80;99.90
8420;DHT22;4247;48.550;8.822;2022-09-24T08:10:26;13.80;99.90
8420;DHT22;4247;48.550;8.822;2022-09-24T08:12:55;13.90;99.90
8420;DHT22;4247;48.550;8.822;2022-09-24T08:15:22;13.90;99.90
8420;DHT22;4247;48.550;8.822;2022-09-24T08:17:50;13.90;99.90
8420;DHT22;4247;48.550;8.822;2022-09-24T08:20:18;13.90;99.90
8420;DHT22;4247;48.550;8.822;2022-09-24T08:22:47;14.00;99.90
8420;DHT22;4247;48.550;8.822;2022-09-24T08:25:18;14.00;99.90
8420;DHT22;4247;48.550;8.822;2022-09-24T08:27:46;14.10;99.90
8420;DHT22;4247;48.550;8.822;2022-09-24T08:30:13;14.00;99.90
8420;DHT22;4247;48.550;8.822;2022-09-24T08:32:45;14.10;99.90
8420;DHT22;4247;48.550;8.822;2022-09-24T08:35:12;14.10;99.90
8420;DHT22;4247;48.550;8.822;2022-09-24T08:37:40;14.10;99.90
8420;DHT22;4247;48.550;8.822;2022-09-24T08:40:13;14.10;99.90
8420;DHT22;4247;48.550;8.822;2022-09-24T08:42:49;14.10;99.90
8420;DHT22;4247;48.550;8.822;2022-09-24T08:45:19;14.10;99.90
8420;DHT22;4247;48.550;8.822;2022-09-24T08:48:10;14.10;99.90
8420;DHT22;4247;48.550;8.822;2022-09-24T08:50:45;14.10;99.90
8420;DHT22;4247;48.550;8.822;2022-09-24T08:53:16;14.10;99.90
8420;DHT22;4247;48.550;8.822;2022-09-24T08:55:47;14.10;99.90
8420;DHT22;4247;48.550;8.822;2022-09-24T08:58:32;14.20;99.90
8420;DHT22;4247;48.550;8.822;2022-09-24T09:01:09;14.30;99.90
8420;DHT22;4247;48.550;8.822;2022-09-24T09:03:47;14.20;99.90
8420;DHT22;4247;48.550;8.822;2022-09-24T09:06:32;14.20;99.90
8420;DHT22;4247;48.550;8.822;2022-09-24T09:09:17;14.30;99.90
8420;DHT22;4247;48.550;8.822;2022-09-24T09:11:47;14.30;99.90
8420;DHT22;4247;48.550;8.822;2022-09-24T09:14:21;14.30;99.90
8420;DHT22;4247;48.550;8.822;2022-09-24T09:16:53;14.40;99.90
8420;DHT22;4247;48.550;8.822;2022-09-24T09:19:26;14.40;99.90
8420;DHT22;4247;48.550;8.822;2022-09-24T09:21:57;14.40;99.90
8420;DHT22;4247;48.550;8.822;2022-09-24T09:24:35;14.50;99.90
8420;DHT22;4247;48.550;8.822;2022-09-24T09:27:10;14.60;99.90
8420;DHT22;4247;48.550;8.822;2022-09-24T09:29:41;14.60;99.90
8420;DHT22;4247;48.550;8.822;2022-09-24T09:32:19;14.70;99.90
8420;DHT22;4247;48.550;8.822;2022-09-24T09:34:54;14.70;99.90
8420;DHT22;4247;48.550;8.822;2022-09-24T09:37:28;14.90;99.90
8420;DHT22;4247;48.550;8.822;2022-09-24T09:40:03;14.90;99.90
8420;DHT22;4247;48.550;8.822;2022-09-24T09:42:37;14.90;99.90
8420;DHT22;4247;48.550;8.822;2022-09-24T09:45:24;15.00;99.90
8420;DHT22;4247;48.550;8.822;2022-09-24T09:47:55;15.10;99.90
8420;DHT22;4247;48.550;8.822;2022-09-24T09:50:26;15.30;99.90
8420;DHT22;4247;48.550;8.822;2022-09-24T09:52:53;15.40;99.90
8420;DHT22;4247;48.550;8.822;2022-09-24T09:55:24;15.40;99.90
8420;DHT22;4247;48.550;8.822;2022-09-24T09:57:52;15.50;99.90
8420;DHT22;4247;48.550;8.822;2022-09-24T10:00:32;15.50;99.90
8420;DHT22;4247;48.550;8.822;2022-09-24T10:02:59;15.50;99.90
8420;DHT22;4247;48.550;8.822;2022-09-24T10:05:36;15.50;99.90
8420;DHT22;4247;48.550;8.822;2022-09-24T10:08:03;15.50;99.90
8420;DHT22;4247;48.550;8.822;2022-09-24T10:10:30;15.60;99.90
8420;DHT22;4247;48.550;8.822;2022-09-24T10:13:06;15.60;99.90
8420;DHT22;4247;48.550;8.822;2022-09-24T10:15:39;15.70;99.90
8420;DHT22;4247;48.550;8.822;2022-09-24T10:18:12;15.80;99.90
8420;DHT22;4247;48.550;8.822;2022-09-24T10:20:45;15.80;99.90
8420;DHT22;4247;48.550;8.822;2022-09-24T10:23:18;15.90;99.90
8420;DHT22;4247;48.550;8.822;2022-09-24T10:25:57;16.00;99.90
8420;DHT22;4247;48.550;8.822;2022-09-24T10:28:25;16.10;99.90
8420;DHT22;4247;48.550;8.822;2022-09-24T10:31:13;16.10;99.90
8420;DHT22;4247;48.550;8.822;2022-09-24T10:33:44;16.30;99.90
8420;DHT22;4247;48.550;8.822;2022-09-24T10:36:14;16.40;99.90
8420;DHT22;4247;48.550;8.822;2022-09-24T10:38:41;16.50;99.90
8420;DHT22;4247;48.550;8.822;2022-09-24T10:41:23;16.70;99.90
8420;DHT22;4247;48.550;8.822;2022-09-24T10:43:51;16.70;99.90
8420;DHT22;4247;48.550;8.822;2022-09-24T10:46:38;16.90;99.90
8420;DHT22;4247;48.550;8.822;2022-09-24T10:49:13;16.80;99.90
8420;DHT22;4247;48.550;8.822;2022-09-24T10:51:49;16.90;99.90
8420;DHT22;4247;48.550;8.822;2022-09-24T10:54:32;16.90;99.90
8420;DHT22;4247;48.550;8.822;2022-09-24T10:57:07;16.90;99.90
8420;DHT22;4247;48.550;8.822;2022-09-24T10:59:48;16.80;99.90
8420;DHT22;4247;48.550;8.822;2022-09-24T11:02:46;16.80;99.90
8420;DHT22;4247;48.550;8.822;2022-09-24T11:05:19;16.80;99.90
8420;DHT22;4247;48.550;8.822;2022-09-24T11:07:57;16.80;99.90
8420;DHT22;4247;48.550;8.822;2022-09-24T11:10:44;16.80;99.90
8420;DHT22;4247;48.550;8.822;2022-09-24T11:13:22;16.60;99.90
8420;DHT22;4247;48.550;8.822;2022-09-24T11:16:04;16.70;99.90
8420;DHT22;4247;48.550;8.822;2022-09-24T11:18:47;16.70;99.90
8420;DHT22;4247;48.550;8.822;2022-09-24T11:21:27;16.80;99.90
8420;DHT22;4247;48.550;8.822;2022-09-24T11:24:19;16.70;99.90
8420;DHT22;4247;48.550;8.822;2022-09-24T11:26:59;16.70;99.90
8420;DHT22;4247;48.550;8.822;2022-09-24T11:29:53;16.60;99.90
8420;DHT22;4247;48.550;8.822;2022-09-24T11:32:28;16.60;99.90
8420;DHT22;4247;48.550;8.822;2022-09-24T11:35:18;16.60;99.90
8420;DHT22;4247;48.550;8.822;2022-09-24T11:37:58;16.50;99.90
8420;DHT22;4247;48.550;8.822;2022-09-24T11:40:36;16.50;99.90
8420;DHT22;4247;48.550;8.822;2022-09-24T11:43:17;16.40;99.90
8420;DHT22;4247;48.550;8.822;2022-09-24T11:45:54;16.40;99.90
8420;DHT22;4247;48.550;8.822;2022-09-24T11:48:39;16.40;99.90
8420;DHT22;4247;48.550;8.822;2022-09-24T11:51:19;16.40;99.90
8420;DHT22;4247;48.550;8.822;2022-09-24T11:53:53;16.20;99.90
8420;DHT22;4247;48.550;8.822;2022-09-24T11:56:25;16.20;99.90
8420;DHT22;4247;48.550;8.822;2022-09-24T11:58:58;16.20;99.90
8420;DHT22;4247;48.550;8.822;2022-09-24T12:01:28;16.20;99.90
8420;DHT22;4247;48.550;8.822;2022-09-24T12:04:01;16.10;99.90
8420;DHT22;4247;48.550;8.822;2022-09-24T12:06:33;16.10;99.90
8420;DHT22;4247;48.550;8.822;2022-09-24T12:09:08;16.10;99.90
8420;DHT22;4247;48.550;8.822;2022-09-24T12:11:45;16.10;99.90
8420;DHT22;4247;48.550;8.822;2022-09-24T12:14:17;16.10;99.90
8420;DHT22;4247;48.550;8.822;2022-09-24T12:16:48;16.10;99.90
8420;DHT22;4247;48.550;8.822;2022-09-24T12:19:20;16.20;99.90
8420;DHT22;4247;48.550;8.822;2022-09-24T12:21:52;16.00;99.90
8420;DHT22;4247;48.550;8.822;2022-09-24T12:24:22;16.00;99.90
8420;DHT22;4247;48.550;8.822;2022-09-24T12:26:52;16.00;99.90
8420;DHT22;4247;48.550;8.822;2022-09-24T12:29:36;15.90;99.90
8420;DHT22;4247;48.550;8.822;2022-09-24T12:32:30;15.90;99.90
8420;DHT22;4247;48.550;8.822;2022-09-24T12:35:30;16.00;99.90
8420;DHT22;4247;48.550;8.822;2022-09-24T12:38:04;16.00;99.90
8420;DHT22;4247;48.550;8.822;2022-09-24T12:40:52;16.00;99.90
8420;DHT22;4247;48.550;8.822;2022-09-24T12:43:27;16.00;99.90
8420;DHT22;4247;48.550;8.822;2022-09-24T12:46:16;16.00;99.90
8420;DHT22;4247;48.550;8.822;2022-09-24T12:48:46;16.00;99.90
8420;DHT22;4247;48.550;8.822;2022-09-24T12:51:14;16.00;99.90
8420;DHT22;4247;48.550;8.822;2022-09-24T12:53:57;16.00;99.90
8420;DHT22;4247;48.550;8.822;2022-09-24T12:56:26;16.00;99.90
8420;DHT22;4247;48.550;8.822;2022-09-24T12:59:00;16.00;99.90
8420;DHT22;4247;48.550;8.822;2022-09-24T13:01:31;16.00;99.90
8420;DHT22;4247;48.550;8.822;2022-09-24T13:04:24;16.10;99.90
8420;DHT22;4247;48.550;8.822;2022-09-24T13:06:53;16.10;99.90
8420;DHT22;4247;48.550;8.822;2022-09-24T13:09:34;16.20;99.90
8420;DHT22;4247;48.550;8.822;2022-09-24T13:12:04;16.30;99.90
8420;DHT22;4247;48.550;8.822;2022-09-24T13:14:33;16.30;99.90
8420;DHT22;4247;48.550;8.822;2022-09-24T13:17:04;16.40;99.90
8420;DHT22;4247;48.550;8.822;2022-09-24T13:19:39;16.60;99.90
8420;DHT22;4247;48.550;8.822;2022-09-24T13:22:20;16.80;99.90
8420;DHT22;4247;48.550;8.822;2022-09-24T13:24:51;16.80;99.90
8420;DHT22;4247;48.550;8.822;2022-09-24T13:27:21;16.90;99.90
8420;DHT22;4247;48.550;8.822;2022-09-24T13:30:03;16.90;99.90
8420;DHT22;4247;48.550;8.822;2022-09-24T13:32:32;16.90;99.90
8420;DHT22;4247;48.550;8.822;2022-09-24T13:35:05;16.90;99.90
8420;DHT22;4247;48.550;8.822;2022-09-24T13:37:35;16.90;99.90
8420;DHT22;4247;48.550;8.822;2022-09-24T13:40:15;16.90;99.90
8420;DHT22;4247;48.550;8.822;2022-09-24T13:42:46;16.90;99.90
8420;DHT22;4247;48.550;8.822;2022-09-24T13:45:17;16.90;99.90
8420;DHT22;4247;48.550;8.822;2022-09-24T13:47:46;17.00;99.90
8420;DHT22;4247;48.550;8.822;2022-09-24T13:50:17;17.00;99.90
8420;DHT22;4247;48.550;8.822;2022-09-24T13:52:47;17.00;99.90
8420;DHT22;4247;48.550;8.822;2022-09-24T13:55:22;17.10;99.90
8420;DHT22;4247;48.550;8.822;2022-09-24T13:57:50;17.10;99.90
8420;DHT22;4247;48.550;8.822;2022-09-24T14:00:20;17.20;99.90
8420;DHT22;4247;48.550;8.822;2022-09-24T14:02:59;17.20;99.90
8420;DHT22;4247;48.550;8.822;2022-09-24T14:05:27;17.30;99.90
8420;DHT22;4247;48.550;8.822;2022-09-24T14:08:00;17.30;99.90
8420;DHT22;4247;48.550;8.822;2022-09-24T14:10:31;17.20;99.90
8420;DHT22;4247;48.550;8.822;2022-09-24T14:13:06;17.20;99.90
8420;DHT22;4247;48.550;8.822;2022-09-24T14:15:33;17.20;99.90
8420;DHT22;4247;48.550;8.822;2022-09-24T14:18:01;17.20;99.90
8420;DHT22;4247;48.550;8.822;2022-09-24T14:20:32;17.20;99.90
8420;DHT22;4247;48.550;8.822;2022-09-24T14:23:01;17.20;99.90
8420;DHT22;4247;48.550;8.822;2022-09-24T14:25:33;17.20;99.90
8420;DHT22;4247;48.550;8.822;2022-09-24T14:28:02;17.20;99.90
8420;DHT22;4247;48.550;8.822;2022-09-24T14:30:45;17.30;99.90
8420;DHT22;4247;48.550;8.822;2022-09-24T14:33:15;17.30;99.90
8420;DHT22;4247;48.550;8.822;2022-09-24T14:35:44;17.30;99.90
8420;DHT22;4247;48.550;8.822;2022-09-24T14:38:15;17.20;99.90
8420;DHT22;4247;48.550;8.822;2022-09-24T14:40:51;17.30;99.90
8420;DHT22;4247;48.550;8.822;2022-09-24T14:43:22;17.30;99.90
8420;DHT22;4247;48.550;8.822;2022-09-24T14:46:01;17.10;99.90
8420;DHT22;4247;48.550;8.822;2022-09-24T14:48:31;17.10;99.90
8420;DHT22;4247;48.550;8.822;2022-09-24T14:50:59;17.10;99.90
8420;DHT22;4247;48.550;8.822;2022-09-24T14:53:29;17.10;99.90
8420;DHT22;4247;48.550;8.822;2022-09-24T14:55:59;17.10;99.90
8420;DHT22;4247;48.550;8.822;2022-09-24T14:58:34;17.20;99.90
8420;DHT22;4247;48.550;8.822;2022-09-24T15:01:11;17.20;99.90
8420;DHT22;4247;48.550;8.822;2022-09-24T15:03:41;17.20;99.90
8420;DHT22;4247;48.550;8.822;2022-09-24T15:06:17;17.10;99.90
8420;DHT22;4247;48.550;8.822;2022-09-24T15:08:52;17.10;99.90
8420;DHT22;4247;48.550;8.822;2022-09-24T15:11:29;17.00;99.90
8420;DHT22;4247;48.550;8.822;2022-09-24T15:14:01;16.90;99.90
8420;DHT22;4247;48.550;8.822;2022-09-24T15:16:30;16.80;99.90
8420;DHT22;4247;48.550;8.822;2022-09-24T15:19:18;16.80;99.90
8420;DHT22;4247;48.550;8.822;2022-09-24T15:21:50;16.70;99.90
8420;DHT22;4247;48.550;8.822;2022-09-24T15:24:17;16.60;99.90
8420;DHT22;4247;48.550;8.822;2022-09-24T15:26:56;16.60;99.90
8420;DHT22;4247;48.550;8.822;2022-09-24T15:29:25;16.60;99.90
8420;DHT22;4247;48.550;8.822;2022-09-24T15:31:53;16.50;99.90
8420;DHT22;4247;48.550;8.822;2022-09-24T15:34:21;16.50;99.90
8420;DHT22;4247;48.550;8.822;2022-09-24T15:36:48;16.50;99.90
8420;DHT22;4247;48.550;8.822;2022-09-24T15:39:19;16.40;99.90
8420;DHT22;4247;48.550;8.822;2022-09-24T15:41:47;16.40;99.90
8420;DHT22;4247;48.550;8.822;2022-09-24T15:44:19;16.40;99.90
8420;DHT22;4247;48.550;8.822;2022-09-24T15:46:47;16.30;99.90
8420;DHT22;4247;48.550;8.822;2022-09-24T15:49:15;16.30;99.90
8420;DHT22;4247;48.550;8.822;2022-09-24T15:51:46;16.20;99.90
8420;DHT22;4247;48.550;8.822;2022-09-24T15:54:13;16.10;99.90
8420;DHT22;4247;48.550;8.822;2022-09-24T15:56:40;16.10;99.90
8420;DHT22;4247;48.550;8.822;2022-09-24T15:59:11;16.00;99.90
8420;DHT22;4247;48.550;8.822;2022-09-24T16:01:39;16.00;99.90
8420;DHT22;4247;48.550;8.822;2022-09-24T16:04:06;15.90;99.90
8420;DHT22;4247;48.550;8.822;2022-09-24T16:06:36;15.80;99.90
8420;DHT22;4247;48.550;8.822;2022-09-24T16:09:04;15.80;99.90
8420;DHT22;4247;48.550;8.822;2022-09-24T16:11:31;15.80;99.90
8420;DHT22;4247;48.550;8.822;2022-09-24T16:13:58;15.80;99.90
8420;DHT22;4247;48.550;8.822;2022-09-24T16:16:27;15.70;99.90
8420;DHT22;4247;48.550;8.822;2022-09-24T16:18:54;15.80;99.90
8420;DHT22;4247;48.550;8.822;2022-09-24T16:21:20;15.70;99.90
8420;DHT22;4247;48.550;8.822;2022-09-24T16:23:53;15.70;99.90
8420;DHT22;4247;48.550;8.822;2022-09-24T16:26:20;15.70;99.90
8420;DHT22;4247;48.550;8.822;2022-09-24T16:28:47;15.60;99.90